Easter Island, Chile
Current Conditions -  °F | °C
As of 5:00 PM on Monday 20 Oct 2014 (Local Time) from SCIP Reporting Station
Broken Clouds Broken Clouds  
Wind Chill: 63°   Ceiling: 3000
Heat Index: 63°   Visibility: 6mi
Dew Point: 48°   Wind: 14mph
Humidity: 59%   Direction: 130°SE
Pressure: 30.21"   Gusts: NA
Location:  27.12°S, 109.37°W
Report Text: SCIP 202300Z 13012KT 9999 SCT020 BKN030 17/09 Q1023 WS ALL RWY NOSIG
Loading
Personal Weather Stations






























Interactive Weather Map
Tropical Storm Tracking
New forecast layout! Learn more

10-Day Weather Forecast

Advertisements
Track Severe Weather on mobile